Terminal Aerodrome Forecast
Issued by NWS Charleston, SC

Home | Current Version | Previous Version | Text Only | Print | Product List | Glossary On
Versions: 1 2 3 4 5 6 7 8 9 10 11 12 13 14 15 16 17 18 19 20 21 22 23 24
000
FTUS42 KCHS 231246 AAB
TAFCHS
TAF AMD
KCHS 231246Z 2313/2412 00000KT P6SM SCT035
     FM231400 15008KT P6SM BKN040
     FM240900 VRB03KT 5SM BR FEW003=

USA.gov is the U.S. government's official web portal to all federal, state and local government web resources and services.